createdAt,value
2022-12-31T00:01:22.531Z,101590.44
2022-12-31T00:04:25.193Z,101590.19
2022-12-31T00:07:29.952Z,101598.16
2022-12-31T00:10:39.958Z,101589.25
2022-12-31T00:13:43.273Z,101598.84
2022-12-31T00:16:46.550Z,101597.38
2022-12-31T00:20:08.567Z,101600.28
2022-12-31T00:23:13.072Z,101610.63
2022-12-31T00:26:17.532Z,101601.03
2022-12-31T00:29:20.196Z,101596.22
2022-12-31T00:32:22.924Z,101601.50
2022-12-31T00:35:27.000Z,101595.41
2022-12-31T00:38:31.060Z,101598.59
2022-12-31T00:41:34.155Z,101605.25
2022-12-31T00:44:36.815Z,101597.50
2022-12-31T00:47:39.470Z,101596.78
2022-12-31T00:50:44.960Z,101596.63
2022-12-31T00:53:49.055Z,101600.91
2022-12-31T00:56:51.838Z,101592.34
2022-12-31T00:59:54.521Z,101595.34
2022-12-31T01:02:57.266Z,101594.69
2022-12-31T01:06:01.386Z,101593.69
2022-12-31T01:09:06.163Z,101592.16
2022-12-31T01:12:08.971Z,101592.34
2022-12-31T01:15:11.721Z,101593.00
2022-12-31T01:18:14.434Z,101593.50
2022-12-31T01:21:18.394Z,101596.66
2022-12-31T01:24:22.536Z,101589.66
2022-12-31T01:27:25.125Z,101583.31
2022-12-31T01:30:27.802Z,101587.78
2022-12-31T01:33:30.429Z,101589.84
2022-12-31T01:36:35.175Z,101584.59
2022-12-31T01:39:39.403Z,101578.28
2022-12-31T01:42:42.111Z,101584.63
2022-12-31T01:45:47.070Z,101587.78
2022-12-31T01:48:52.843Z,101580.97
2022-12-31T01:51:58.767Z,101592.09
2022-12-31T01:55:07.829Z,101590.25
2022-12-31T01:58:14.090Z,101592.00
2022-12-31T02:01:24.164Z,101586.91
2022-12-31T02:04:28.938Z,101599.59
2022-12-31T02:07:34.514Z,101590.72
2022-12-31T02:10:38.742Z,101585.47
2022-12-31T02:13:41.455Z,101594.59
2022-12-31T02:16:53.145Z,101594.06
2022-12-31T02:20:46.581Z,101589.47
2022-12-31T02:24:16.798Z,101588.94
2022-12-31T02:27:33.867Z,101584.34
2022-12-31T02:30:39.380Z,101587.38
2022-12-31T02:33:50.952Z,101580.41
2022-12-31T02:36:55.293Z,101577.03
2022-12-31T02:39:58.881Z,101578.69
2022-12-31T02:43:01.562Z,101579.59
2022-12-31T02:46:13.587Z,101573.13
2022-12-31T02:49:23.337Z,101579.75
2022-12-31T02:52:34.282Z,101581.66
2022-12-31T02:55:48.887Z,101586.59
2022-12-31T02:59:20.235Z,101579.91
2022-12-31T03:02:28.239Z,101583.19
2022-12-31T03:05:34.407Z,101588.41
2022-12-31T03:08:57.007Z,101584.44
2022-12-31T03:12:19.478Z,101589.53
2022-12-31T03:15:23.833Z,101592.06
2022-12-31T03:18:46.549Z,101587.13
2022-12-31T03:22:07.489Z,101595.84
2022-12-31T03:25:30.455Z,101595.41
2022-12-31T03:28:33.250Z,101592.25
2022-12-31T03:31:35.870Z,101591.56
2022-12-31T03:34:39.942Z,101597.59
2022-12-31T03:37:43.411Z,101598.28
2022-12-31T03:40:48.400Z,101603.66
2022-12-31T03:43:51.079Z,101593.56
2022-12-31T03:46:53.674Z,101590.09
2022-12-31T03:49:58.312Z,101591.50
2022-12-31T03:53:01.047Z,101600.72
2022-12-31T03:56:03.961Z,101599.78
2022-12-31T03:59:09.472Z,101593.41
2022-12-31T04:02:12.207Z,101592.16
2022-12-31T04:05:17.565Z,101591.53
2022-12-31T04:08:20.249Z,101592.00
2022-12-31T04:11:23.021Z,101589.44
2022-12-31T04:14:25.660Z,101590.25
2022-12-31T04:17:28.482Z,101587.88
2022-12-31T04:20:32.922Z,101592.66
2022-12-31T04:23:35.606Z,101604.38
2022-12-31T04:26:38.727Z,101613.13
2022-12-31T04:29:41.511Z,101615.63
2022-12-31T04:32:45.307Z,101616.31
2022-12-31T04:35:49.305Z,101615.50
2022-12-31T04:38:52.047Z,101611.69
2022-12-31T04:41:55.175Z,101608.19
2022-12-31T04:44:57.788Z,101605.00
2022-12-31T04:48:00.428Z,101610.56
2022-12-31T04:51:06.398Z,101607.72
2022-12-31T04:54:09.447Z,101597.72
2022-12-31T04:57:12.156Z,101595.97
2022-12-31T05:00:16.154Z,101587.41
2022-12-31T05:03:19.223Z,101588.97
2022-12-31T05:06:23.834Z,101586.25
2022-12-31T05:09:28.301Z,101593.75
2022-12-31T05:12:31.097Z,101594.69
2022-12-31T05:15:33.961Z,101596.75
2022-12-31T05:18:37.039Z,101596.75
2022-12-31T05:21:41.057Z,101605.81
2022-12-31T05:24:43.717Z,101603.44
2022-12-31T05:27:46.362Z,101596.31
2022-12-31T05:30:50.830Z,101594.84
2022-12-31T05:33:53.784Z,101599.91
2022-12-31T05:36:57.785Z,101612.47
2022-12-31T05:40:00.443Z,101629.16
2022-12-31T05:43:03.040Z,101632.47
2022-12-31T05:46:05.776Z,101629.13
2022-12-31T05:49:08.577Z,101619.75
2022-12-31T05:52:15.916Z,101635.97
2022-12-31T05:55:18.885Z,101644.88
2022-12-31T05:58:21.538Z,101656.91
2022-12-31T06:01:24.428Z,101649.47
2022-12-31T06:04:27.390Z,101639.94
2022-12-31T06:07:31.886Z,101646.94
2022-12-31T06:10:34.573Z,101656.13
2022-12-31T06:13:37.264Z,101666.44
2022-12-31T06:16:41.346Z,101671.69
2022-12-31T06:19:44.066Z,101676.44
2022-12-31T06:22:48.079Z,101677.53
2022-12-31T06:25:53.904Z,101688.53
2022-12-31T06:28:56.497Z,101683.75
2022-12-31T06:31:59.198Z,101690.13
2022-12-31T06:35:01.849Z,101686.16
2022-12-31T06:38:05.965Z,101693.63
2022-12-31T06:41:12.748Z,101697.88
2022-12-31T06:44:15.641Z,101702.81
2022-12-31T06:47:18.287Z,101703.00
2022-12-31T06:50:21.269Z,101708.56
2022-12-31T06:53:25.264Z,101698.69
2022-12-31T06:56:34.340Z,101696.75
2022-12-31T06:59:38.021Z,101696.75
2022-12-31T07:03:01.690Z,101700.75
2022-12-31T07:06:12.662Z,101707.88
2022-12-31T07:09:26.726Z,101706.56
2022-12-31T07:12:39.236Z,101708.25
2022-12-31T07:16:02.827Z,101717.41
2022-12-31T07:19:17.515Z,101718.63
2022-12-31T07:22:20.875Z,101722.06
2022-12-31T07:25:25.660Z,101734.06
2022-12-31T07:28:41.959Z,101744.63
2022-12-31T07:31:59.282Z,101748.63
2022-12-31T07:35:09.717Z,101755.84
2022-12-31T07:38:23.111Z,101769.06
2022-12-31T07:41:43.373Z,101778.19
2022-12-31T07:44:57.576Z,101787.75
2022-12-31T07:48:24.179Z,101785.50
2022-12-31T07:51:27.878Z,101780.16
2022-12-31T07:54:30.687Z,101779.16
2022-12-31T07:57:41.136Z,101787.06
2022-12-31T08:00:44.253Z,101784.84
2022-12-31T08:03:57.751Z,101788.63
2022-12-31T08:07:11.383Z,101783.78
2022-12-31T08:10:20.939Z,101797.25
2022-12-31T08:13:25.748Z,101801.47
2022-12-31T08:16:29.330Z,101797.69
2022-12-31T08:19:33.049Z,101808.44
2022-12-31T08:22:56.148Z,101805.72
2022-12-31T08:26:18.796Z,101814.53
2022-12-31T08:29:34.523Z,101816.19
2022-12-31T08:32:43.830Z,101810.06
2022-12-31T08:36:00.432Z,101819.44
2022-12-31T08:39:13.832Z,101808.22
2022-12-31T08:42:25.628Z,101815.41
2022-12-31T08:45:36.415Z,101825.38
2022-12-31T08:48:41.657Z,101822.66
2022-12-31T08:51:44.756Z,101815.78
2022-12-31T08:54:48.041Z,101838.81
2022-12-31T08:58:05.048Z,101839.34
2022-12-31T09:01:11.144Z,101832.41
2022-12-31T09:04:24.299Z,101849.47
2022-12-31T09:07:35.687Z,101853.06
2022-12-31T09:10:46.299Z,101840.94
2022-12-31T09:14:13.064Z,101855.41
2022-12-31T09:17:39.164Z,101839.31
2022-12-31T09:20:44.701Z,101828.97
2022-12-31T09:23:48.082Z,101823.97
2022-12-31T09:27:03.639Z,101829.78
2022-12-31T09:30:08.895Z,101827.13
2022-12-31T09:33:23.121Z,101824.22
2022-12-31T09:36:32.010Z,101821.34
2022-12-31T09:39:40.631Z,101827.53
2022-12-31T09:43:00.117Z,101838.03
2022-12-31T09:46:20.319Z,101839.25
2022-12-31T09:50:00.184Z,101838.13
2022-12-31T09:53:26.606Z,101853.25
2022-12-31T09:56:32.646Z,101840.91
2022-12-31T09:59:44.046Z,101834.63
2022-12-31T10:03:05.111Z,101827.81
2022-12-31T10:06:22.088Z,101837.72
2022-12-31T10:09:40.994Z,101830.44
2022-12-31T10:13:07.416Z,101836.03
2022-12-31T10:16:54.702Z,101827.28
2022-12-31T10:20:16.879Z,101821.44
2022-12-31T10:23:36.585Z,101833.53
2022-12-31T10:27:06.031Z,101824.81
2022-12-31T10:30:16.234Z,101823.13
2022-12-31T10:33:34.070Z,101821.91
2022-12-31T10:36:52.858Z,101815.47
2022-12-31T10:40:06.708Z,101818.31
2022-12-31T10:43:34.141Z,101822.41
2022-12-31T10:46:58.554Z,101834.47
2022-12-31T10:50:42.841Z,101821.66
2022-12-31T10:54:30.203Z,101821.19
2022-12-31T10:57:52.637Z,101822.44
2022-12-31T11:01:06.608Z,101812.88
2022-12-31T11:04:54.043Z,101817.31
2022-12-31T11:08:10.748Z,101814.84
2022-12-31T11:11:28.050Z,101808.53
2022-12-31T11:14:57.832Z,101796.63
2022-12-31T11:18:09.074Z,101795.34
2022-12-31T11:21:41.832Z,101800.25
2022-12-31T11:25:06.298Z,101798.78
2022-12-31T11:28:35.029Z,101792.69
2022-12-31T11:31:50.905Z,101790.69
2022-12-31T11:35:15.945Z,101785.47
2022-12-31T11:38:25.086Z,101790.03
2022-12-31T11:41:35.423Z,101779.94
2022-12-31T11:44:46.724Z,101782.38
2022-12-31T11:48:29.660Z,101786.25
2022-12-31T11:51:50.201Z,101786.81
2022-12-31T11:55:03.457Z,101782.56
2022-12-31T11:58:14.071Z,101776.06
2022-12-31T12:01:22.113Z,101787.25
2022-12-31T12:04:26.567Z,101788.41
2022-12-31T12:07:31.731Z,101780.69
2022-12-31T12:10:41.902Z,101777.00
2022-12-31T12:13:44.852Z,101772.94
2022-12-31T12:16:52.832Z,101773.16
2022-12-31T12:19:57.536Z,101762.22
2022-12-31T12:23:01.997Z,101766.38
2022-12-31T12:26:05.101Z,101776.50
2022-12-31T12:29:12.208Z,101785.16
2022-12-31T12:32:16.677Z,101787.28
2022-12-31T12:35:26.110Z,101783.16
2022-12-31T12:38:29.464Z,101775.00
2022-12-31T12:41:33.304Z,101770.22
2022-12-31T12:44:36.445Z,101762.97
2022-12-31T12:47:42.567Z,101765.75
2022-12-31T12:50:49.007Z,101761.66
2022-12-31T12:53:59.354Z,101761.75
2022-12-31T12:57:10.426Z,101771.06
2022-12-31T13:00:19.464Z,101772.59
2022-12-31T13:07:45.240Z,101779.00
2022-12-31T13:11:02.550Z,101767.47
2022-12-31T13:14:17.165Z,101779.00
2022-12-31T13:17:38.868Z,101785.78
2022-12-31T13:20:47.501Z,101774.19
2022-12-31T13:23:56.697Z,101764.88
2022-12-31T13:27:07.217Z,101783.03
2022-12-31T13:30:15.656Z,101783.25
2022-12-31T13:33:20.774Z,101779.03
2022-12-31T13:36:27.338Z,101775.50
2022-12-31T13:39:36.831Z,101767.84
2022-12-31T13:42:45.886Z,101771.13
2022-12-31T13:45:59.542Z,101773.91
2022-12-31T13:49:05.477Z,101779.22
2022-12-31T13:52:19.570Z,101788.72
2022-12-31T13:55:26.630Z,101790.59
2022-12-31T13:58:35.910Z,101788.72
2022-12-31T14:01:43.211Z,101788.63
2022-12-31T14:04:52.244Z,101780.19
2022-12-31T14:07:57.713Z,101798.44
2022-12-31T14:11:13.657Z,101788.41
2022-12-31T14:14:30.088Z,101788.16
2022-12-31T14:17:42.408Z,101792.16
2022-12-31T14:20:48.114Z,101790.84
2022-12-31T14:23:58.799Z,101792.16
2022-12-31T14:27:05.663Z,101787.22
2022-12-31T14:30:16.630Z,101793.91
2022-12-31T14:33:46.587Z,101805.63
2022-12-31T14:36:59.885Z,101802.00
2022-12-31T14:40:16.008Z,101808.06
2022-12-31T14:43:30.621Z,101798.25
2022-12-31T14:46:45.112Z,101813.25
2022-12-31T14:50:00.885Z,101810.59
2022-12-31T14:53:09.233Z,101817.94
2022-12-31T14:56:29.119Z,101820.97
2022-12-31T14:59:40.478Z,101825.00
2022-12-31T15:02:49.765Z,101824.94
2022-12-31T15:05:59.128Z,101826.94
2022-12-31T15:09:12.418Z,101825.19
2022-12-31T15:12:30.575Z,101837.66
2022-12-31T15:15:57.957Z,101837.50
2022-12-31T15:19:39.986Z,101825.78
2022-12-31T15:22:45.003Z,101821.84
2022-12-31T15:25:50.488Z,101832.16
2022-12-31T15:28:58.634Z,101835.94
2022-12-31T15:32:05.009Z,101834.16
2022-12-31T15:35:26.198Z,101835.06
2022-12-31T15:38:35.122Z,101830.91
2022-12-31T15:41:46.025Z,101825.72
2022-12-31T15:45:00.359Z,101820.28
2022-12-31T15:48:13.783Z,101824.31
2022-12-31T15:51:19.699Z,101839.72
2022-12-31T15:54:36.127Z,101846.03
2022-12-31T15:57:41.961Z,101842.16
2022-12-31T16:01:01.751Z,101848.13
2022-12-31T16:04:12.705Z,101855.53
2022-12-31T16:07:16.273Z,101843.72
2022-12-31T16:10:23.813Z,101835.94
2022-12-31T16:13:29.149Z,101812.72
2022-12-31T16:16:33.456Z,101810.53
2022-12-31T16:19:43.666Z,101825.34
2022-12-31T16:22:51.988Z,101827.72
2022-12-31T16:26:00.834Z,101830.34
2022-12-31T16:29:04.538Z,101840.16
2022-12-31T16:32:11.995Z,101837.56
2022-12-31T16:35:24.655Z,101835.13
2022-12-31T16:38:32.745Z,101850.31
2022-12-31T16:41:42.352Z,101860.59
2022-12-31T16:44:45.515Z,101872.72
2022-12-31T16:47:48.701Z,101882.19
2022-12-31T16:50:55.834Z,101879.78
2022-12-31T16:53:59.319Z,101873.28
2022-12-31T16:57:02.608Z,101877.53
2022-12-31T17:00:07.031Z,101866.38
2022-12-31T17:03:17.799Z,101862.16
2022-12-31T17:06:22.046Z,101866.03
2022-12-31T17:09:34.158Z,101868.03
2022-12-31T17:13:17.354Z,101855.13
2022-12-31T17:16:06.880Z,101848.53
2022-12-31T17:19:26.586Z,101840.78
2022-12-31T17:22:36.975Z,101848.53
2022-12-31T17:25:40.060Z,101829.22
2022-12-31T17:28:46.155Z,101836.16
2022-12-31T17:31:59.495Z,101845.97
2022-12-31T17:35:02.607Z,101882.91
2022-12-31T17:38:32.981Z,101885.41
2022-12-31T17:41:35.713Z,101891.97
2022-12-31T17:44:41.012Z,101894.69
2022-12-31T17:47:48.209Z,101881.78
2022-12-31T17:50:52.867Z,101866.19
2022-12-31T17:53:59.822Z,101870.91
2022-12-31T17:57:02.552Z,101878.97
2022-12-31T18:00:06.130Z,101867.53
2022-12-31T18:03:15.199Z,101878.41
2022-12-31T18:06:21.331Z,101891.88
2022-12-31T18:09:25.411Z,101892.09
2022-12-31T18:12:28.340Z,101895.84
2022-12-31T18:15:31.621Z,101893.47
2022-12-31T18:18:37.483Z,101897.75
2022-12-31T18:21:40.707Z,101892.09
2022-12-31T18:24:44.926Z,101888.16
2022-12-31T18:27:48.097Z,101883.50
2022-12-31T18:30:51.723Z,101893.78
2022-12-31T18:33:56.810Z,101890.38
2022-12-31T18:36:59.755Z,101894.22
2022-12-31T18:40:04.295Z,101888.69
2022-12-31T18:43:10.102Z,101885.97
2022-12-31T18:46:14.354Z,101892.44
2022-12-31T18:49:17.200Z,101896.59
2022-12-31T18:52:21.927Z,101889.34
2022-12-31T18:55:32.071Z,101893.50
2022-12-31T18:58:34.725Z,101906.41
2022-12-31T19:01:39.809Z,101904.69
2022-12-31T19:04:42.692Z,101900.94
2022-12-31T19:07:45.351Z,101903.53
2022-12-31T19:10:50.817Z,101908.38
2022-12-31T19:13:53.673Z,101909.50
2022-12-31T19:20:04.376Z,101905.59
2022-12-31T19:23:14.585Z,101916.44
2022-12-31T19:26:21.048Z,101907.72
2022-12-31T19:29:25.493Z,101904.88
2022-12-31T19:32:28.788Z,101913.81
2022-12-31T19:35:31.450Z,101917.31
2022-12-31T19:38:34.448Z,101913.31
2022-12-31T19:41:38.477Z,101924.31
2022-12-31T19:44:41.258Z,101918.97
2022-12-31T19:47:44.794Z,101922.47
2022-12-31T19:50:49.007Z,101922.81
2022-12-31T19:53:51.674Z,101923.72
2022-12-31T19:56:55.797Z,101914.84
2022-12-31T19:59:58.407Z,101910.00
2022-12-31T20:03:01.619Z,101914.91
2022-12-31T20:06:07.132Z,101907.53
2022-12-31T20:09:11.562Z,101897.25
2022-12-31T20:12:15.608Z,101906.00
2022-12-31T20:15:18.503Z,101905.06
2022-12-31T20:18:22.982Z,101901.59
2022-12-31T20:21:27.394Z,101913.03
2022-12-31T20:24:30.118Z,101917.00
2022-12-31T20:27:34.181Z,101925.53
2022-12-31T20:30:38.504Z,101929.72
2022-12-31T20:33:42.145Z,101937.44
2022-12-31T20:36:44.898Z,101940.28
2022-12-31T20:39:47.871Z,101944.13
2022-12-31T20:42:52.451Z,101943.88
2022-12-31T20:45:55.215Z,101935.41
2022-12-31T20:49:00.041Z,101949.78
2022-12-31T20:52:05.490Z,101938.13
2022-12-31T20:55:09.746Z,101944.00
2022-12-31T20:58:13.812Z,101949.63
2022-12-31T21:01:17.847Z,101942.38
2022-12-31T21:04:20.743Z,101954.31
2022-12-31T21:07:23.703Z,101949.38
2022-12-31T21:10:26.369Z,101957.91
2022-12-31T21:13:31.161Z,101950.50
2022-12-31T21:16:34.057Z,101941.69
2022-12-31T21:19:36.707Z,101951.44
2022-12-31T21:22:39.396Z,101942.41
2022-12-31T21:25:42.235Z,101948.25
2022-12-31T21:28:46.314Z,101951.59
2022-12-31T21:31:49.205Z,101941.50
2022-12-31T21:35:23.086Z,101949.97
2022-12-31T21:38:14.591Z,101952.78
2022-12-31T21:41:35.458Z,101955.94
2022-12-31T21:44:40.033Z,101954.91
2022-12-31T21:48:01.224Z,101949.72
2022-12-31T21:51:09.590Z,101958.25
2022-12-31T21:54:32.377Z,101963.69
2022-12-31T21:57:59.100Z,101960.13
2022-12-31T22:01:18.723Z,101966.06
2022-12-31T22:04:59.734Z,101960.44
2022-12-31T22:07:44.619Z,101951.94
2022-12-31T22:10:52.413Z,101941.72
2022-12-31T22:13:56.058Z,101932.81
2022-12-31T22:17:00.065Z,101930.94
2022-12-31T22:20:26.540Z,101934.13
2022-12-31T22:23:25.348Z,101932.84
2022-12-31T22:26:29.345Z,101931.00
2022-12-31T22:29:32.284Z,101925.88
2022-12-31T22:32:37.050Z,101925.28
2022-12-31T22:35:39.687Z,101917.03
2022-12-31T22:38:43.207Z,101917.69
2022-12-31T22:41:46.501Z,101924.41
2022-12-31T22:44:49.228Z,101917.03
2022-12-31T22:47:53.424Z,101905.91
2022-12-31T22:50:57.153Z,101898.91
2022-12-31T22:53:59.850Z,101915.91
2022-12-31T22:57:02.524Z,101928.00
2022-12-31T23:00:11.102Z,101947.00
2022-12-31T23:03:15.517Z,101951.53
2022-12-31T23:06:19.464Z,101946.94
2022-12-31T23:09:40.836Z,101951.06
2022-12-31T23:12:43.598Z,101962.09
2022-12-31T23:16:04.530Z,101956.88
2022-12-31T23:19:27.755Z,101961.34
2022-12-31T23:22:48.724Z,101962.22
2022-12-31T23:25:52.121Z,101952.84
2022-12-31T23:28:54.775Z,101957.31
2022-12-31T23:31:57.422Z,101946.72
2022-12-31T23:35:09.243Z,101955.97
2022-12-31T23:38:13.355Z,101959.19
2022-12-31T23:41:19.424Z,101965.91
2022-12-31T23:44:22.093Z,101958.72
2022-12-31T23:47:24.903Z,101960.59
2022-12-31T23:50:29.118Z,101950.41
2022-12-31T23:53:31.866Z,101947.56
2022-12-31T23:56:34.617Z,101943.88
2022-12-31T23:59:37.348Z,101939.44
